createdAt,value
2018-08-12T00:00:17.096Z,0.00
2018-08-12T00:01:17.079Z,0.00
2018-08-12T00:02:17.122Z,0.00
2018-08-12T00:03:17.056Z,0.00
2018-08-12T00:04:17.047Z,0.00
2018-08-12T00:05:17.030Z,0.00
2018-08-12T00:06:17.018Z,0.00
2018-08-12T00:07:17.052Z,0.00
2018-08-12T00:08:17.002Z,0.00
2018-08-12T00:09:17.030Z,0.00
2018-08-12T00:10:16.978Z,0.00
2018-08-12T00:11:16.966Z,0.00
2018-08-12T00:12:16.950Z,0.00
2018-08-12T00:13:16.974Z,0.00
2018-08-12T00:14:16.926Z,0.00
2018-08-12T00:15:16.969Z,0.00
2018-08-12T00:16:16.911Z,0.00
2018-08-12T00:17:16.891Z,0.00
2018-08-12T00:18:16.905Z,0.00
2018-08-12T00:19:16.870Z,0.00
2018-08-12T00:20:16.883Z,0.00
2018-08-12T00:21:16.844Z,0.00
2018-08-12T00:22:16.831Z,0.00
2018-08-12T00:23:16.819Z,0.00
2018-08-12T00:24:16.845Z,0.00
2018-08-12T00:25:16.794Z,0.00
2018-08-12T00:26:16.781Z,0.00
2018-08-12T00:27:16.771Z,0.00
2018-08-12T00:28:16.762Z,0.00
2018-08-12T00:29:16.795Z,0.00
2018-08-12T00:30:16.749Z,0.00
2018-08-12T00:31:16.728Z,0.00
2018-08-12T00:32:16.716Z,0.00
2018-08-12T00:33:16.711Z,0.00
2018-08-12T00:34:16.747Z,0.00
2018-08-12T00:35:16.685Z,0.00
2018-08-12T00:36:16.681Z,0.00
2018-08-12T00:37:16.666Z,0.00
2018-08-12T00:38:16.652Z,0.00
2018-08-12T00:39:16.685Z,0.00
2018-08-12T00:40:16.632Z,0.00
2018-08-12T00:41:16.627Z,0.00
2018-08-12T00:42:16.621Z,0.00
2018-08-12T00:43:16.608Z,0.00
2018-08-12T00:44:16.616Z,0.00
2018-08-12T00:45:16.575Z,0.00
2018-08-12T00:46:16.560Z,0.00
2018-08-12T00:47:16.558Z,0.00
2018-08-12T00:48:16.536Z,0.00
2018-08-12T00:49:16.571Z,0.00
2018-08-12T00:50:16.514Z,0.00
2018-08-12T00:51:16.501Z,0.00
2018-08-12T00:52:16.501Z,0.00
2018-08-12T00:53:16.486Z,0.00
2018-08-12T00:54:25.905Z,0.00
2018-08-12T00:55:16.491Z,0.00
2018-08-12T00:56:16.443Z,0.00
2018-08-12T00:57:16.427Z,0.00
2018-08-12T00:58:16.423Z,0.00
2018-08-12T00:59:16.410Z,0.00
2018-08-12T01:00:16.437Z,0.00
2018-08-12T01:01:16.385Z,0.00
2018-08-12T01:02:16.376Z,0.00
2018-08-12T01:03:16.369Z,0.00
2018-08-12T01:04:16.362Z,0.00
2018-08-12T01:05:16.383Z,0.00
2018-08-12T01:06:16.373Z,0.00
2018-08-12T01:07:16.317Z,0.00
2018-08-12T01:08:16.320Z,0.00
2018-08-12T01:09:16.296Z,0.00
2018-08-12T01:10:16.292Z,0.00
2018-08-12T01:11:16.311Z,0.00
2018-08-12T01:12:16.259Z,0.00
2018-08-12T01:13:16.252Z,0.00
2018-08-12T01:14:16.267Z,0.00
2018-08-12T01:15:16.230Z,0.00
2018-08-12T01:16:16.243Z,0.00
2018-08-12T01:17:16.207Z,0.00
2018-08-12T01:18:16.199Z,0.00
2018-08-12T01:19:16.189Z,0.00
2018-08-12T01:20:16.219Z,0.00
2018-08-12T01:21:16.172Z,0.00
2018-08-12T01:22:16.167Z,0.00
2018-08-12T01:23:16.141Z,0.00
2018-08-12T01:24:16.133Z,0.00
2018-08-12T01:25:16.159Z,0.00
2018-08-12T01:26:16.105Z,0.00
2018-08-12T01:27:16.137Z,0.00
2018-08-12T01:28:16.092Z,0.00
2018-08-12T01:29:16.076Z,0.00
2018-08-12T01:30:23.916Z,0.00
2018-08-12T01:31:16.058Z,0.00
2018-08-12T01:32:18.954Z,0.00
2018-08-12T01:33:16.579Z,0.00
2018-08-12T01:34:16.048Z,0.00
2018-08-12T01:35:16.420Z,0.00
2018-08-12T01:36:16.602Z,0.00
2018-08-12T01:37:19.099Z,0.00
2018-08-12T01:38:16.553Z,0.00
2018-08-12T01:39:15.971Z,0.00
2018-08-12T01:40:15.957Z,0.00
2018-08-12T01:41:15.949Z,0.00
2018-08-12T01:42:15.933Z,0.00
2018-08-12T01:43:15.961Z,0.00
2018-08-12T01:44:15.915Z,0.00
2018-08-12T01:45:15.899Z,0.00
2018-08-12T01:46:15.884Z,0.00
2018-08-12T01:47:15.883Z,0.00
2018-08-12T01:48:24.974Z,0.00
2018-08-12T01:49:15.843Z,0.00
2018-08-12T01:50:15.840Z,0.00
2018-08-12T01:51:15.861Z,0.00
2018-08-12T01:52:15.806Z,0.00
2018-08-12T01:53:15.802Z,0.00
2018-08-12T01:54:15.815Z,0.00
2018-08-12T01:55:15.779Z,0.00
2018-08-12T01:56:15.773Z,0.00
2018-08-12T01:57:15.749Z,0.00
2018-08-12T01:58:15.795Z,0.00
2018-08-12T01:59:15.729Z,0.00
2018-08-12T02:00:15.722Z,0.00
2018-08-12T02:01:15.706Z,0.00
2018-08-12T02:02:15.698Z,0.00
2018-08-12T02:03:15.723Z,0.00
2018-08-12T02:04:15.674Z,0.00
2018-08-12T02:05:15.670Z,0.00
2018-08-12T02:06:15.651Z,0.00
2018-08-12T02:07:15.645Z,0.00
2018-08-12T02:08:15.663Z,0.00
2018-08-12T02:09:15.613Z,0.00
2018-08-12T02:10:15.609Z,0.00
2018-08-12T02:11:15.611Z,0.00
2018-08-12T02:12:15.621Z,0.00
2018-08-12T02:13:15.589Z,0.00
2018-08-12T02:14:15.557Z,0.00
2018-08-12T02:15:15.601Z,0.00
2018-08-12T02:16:15.535Z,0.00
2018-08-12T02:17:15.565Z,0.00
2018-08-12T02:18:15.528Z,0.00
2018-08-12T02:19:15.509Z,0.00
2018-08-12T02:20:15.505Z,0.00
2018-08-12T02:21:15.492Z,0.00
2018-08-12T02:22:15.515Z,0.00
2018-08-12T02:23:15.472Z,0.00
2018-08-12T02:24:15.460Z,0.00
2018-08-12T02:25:15.457Z,0.00
2018-08-12T02:26:15.463Z,0.00
2018-08-12T02:27:15.425Z,0.00
2018-08-12T02:28:15.421Z,0.00
2018-08-12T02:29:15.408Z,0.00
2018-08-12T02:30:24.521Z,0.00
2018-08-12T02:31:15.378Z,0.00
2018-08-12T02:32:15.370Z,0.00
2018-08-12T02:33:15.361Z,0.00
2018-08-12T02:34:15.343Z,0.00
2018-08-12T02:35:15.338Z,0.00
2018-08-12T02:36:15.373Z,0.00
2018-08-12T02:37:15.315Z,0.00
2018-08-12T02:38:15.304Z,0.00
2018-08-12T02:39:23.001Z,0.00
2018-08-12T02:40:15.277Z,0.00
2018-08-12T02:41:15.304Z,0.00
2018-08-12T02:42:15.281Z,0.00
2018-08-12T02:43:15.244Z,0.00
2018-08-12T02:44:15.230Z,0.00
2018-08-12T02:45:23.032Z,0.00
2018-08-12T02:46:15.213Z,0.00
2018-08-12T02:47:15.227Z,0.00
2018-08-12T02:48:15.184Z,0.00
2018-08-12T02:49:15.169Z,0.00
2018-08-12T02:50:15.157Z,0.00
2018-08-12T02:51:15.159Z,0.00
2018-08-12T02:52:15.161Z,0.00
2018-08-12T02:53:15.127Z,0.00
2018-08-12T02:54:15.115Z,0.00
2018-08-12T02:55:15.099Z,0.00
2018-08-12T02:56:15.091Z,0.00
2018-08-12T02:57:15.118Z,0.00
2018-08-12T02:58:15.105Z,0.00
2018-08-12T02:59:15.053Z,0.00
2018-08-12T03:00:15.045Z,0.00
2018-08-12T03:01:15.037Z,0.00
2018-08-12T03:02:15.065Z,0.00
2018-08-12T03:03:24.085Z,0.00
2018-08-12T03:04:15.009Z,0.00
2018-08-12T03:05:14.991Z,0.00
2018-08-12T03:06:14.977Z,0.00
2018-08-12T03:07:14.979Z,4.00
2018-08-12T03:08:14.993Z,4.00
2018-08-12T03:09:14.945Z,0.00
2018-08-12T03:10:14.937Z,4.00
2018-08-12T03:11:14.921Z,4.00
2018-08-12T03:12:22.614Z,4.00
2018-08-12T03:13:14.936Z,4.00
2018-08-12T03:14:14.897Z,8.00
2018-08-12T03:15:14.886Z,8.00
2018-08-12T03:16:14.877Z,4.00
2018-08-12T03:17:14.864Z,8.00
2018-08-12T03:18:14.890Z,8.00
2018-08-12T03:19:14.842Z,8.00
2018-08-12T03:20:14.826Z,8.00
2018-08-12T03:21:14.815Z,12.00
2018-08-12T03:22:14.854Z,16.00
2018-08-12T03:23:14.834Z,16.00
2018-08-12T03:24:22.644Z,20.00
2018-08-12T03:25:14.773Z,24.00
2018-08-12T03:26:14.763Z,28.00
2018-08-12T03:27:14.758Z,32.00
2018-08-12T03:28:14.771Z,36.00
2018-08-12T03:29:14.776Z,40.00
2018-08-12T03:30:14.842Z,40.00
2018-08-12T03:31:14.704Z,48.00
2018-08-12T03:32:14.696Z,56.00
2018-08-12T03:33:14.680Z,60.00
2018-08-12T03:34:14.717Z,64.00
2018-08-12T03:35:14.662Z,72.00
2018-08-12T03:36:14.645Z,84.00
2018-08-12T03:37:14.639Z,92.00
2018-08-12T03:38:14.634Z,96.00
2018-08-12T03:39:14.653Z,112.00
2018-08-12T03:40:14.601Z,124.00
2018-08-12T03:41:14.633Z,140.00
2018-08-12T03:42:14.575Z,156.00
2018-08-12T03:43:14.563Z,168.00
2018-08-12T03:44:14.557Z,188.00
2018-08-12T03:45:14.537Z,208.00
2018-08-12T03:46:14.575Z,224.00
2018-08-12T03:47:14.519Z,236.00
2018-08-12T03:48:22.167Z,252.00
2018-08-12T03:49:14.493Z,268.00
2018-08-12T03:50:14.531Z,280.00
2018-08-12T03:51:14.466Z,296.00
2018-08-12T03:52:14.469Z,316.00
2018-08-12T03:53:14.489Z,328.00
2018-08-12T03:54:14.443Z,348.00
2018-08-12T03:55:14.427Z,364.00
2018-08-12T03:56:14.424Z,380.00
2018-08-12T03:57:14.407Z,404.00
2018-08-12T03:58:14.436Z,432.00
2018-08-12T03:59:14.386Z,460.00
2018-08-12T04:00:14.371Z,492.00
2018-08-12T04:01:14.360Z,520.00
2018-08-12T04:02:14.376Z,548.00
2018-08-12T04:03:23.720Z,576.00
2018-08-12T04:04:14.351Z,592.00
2018-08-12T04:05:14.322Z,616.00
2018-08-12T04:06:22.220Z,628.00
2018-08-12T04:07:14.301Z,644.00
2018-08-12T04:08:14.290Z,660.00
2018-08-12T04:09:14.308Z,668.00
2018-08-12T04:10:14.272Z,672.00
2018-08-12T04:11:14.284Z,680.00
2018-08-12T04:12:22.264Z,688.00
2018-08-12T04:13:14.238Z,700.00
2018-08-12T04:14:14.218Z,712.00
2018-08-12T04:15:14.248Z,728.00
2018-08-12T04:16:14.204Z,740.00
2018-08-12T04:17:14.186Z,764.00
2018-08-12T04:18:14.182Z,788.00
2018-08-12T04:19:14.170Z,820.00
2018-08-12T04:20:14.187Z,856.00
2018-08-12T04:21:14.142Z,888.00
2018-08-12T04:22:14.163Z,932.00
2018-08-12T04:23:14.111Z,992.00
2018-08-12T04:24:14.099Z,1036.00
2018-08-12T04:25:14.139Z,1112.00
2018-08-12T04:26:14.074Z,1212.00
2018-08-12T04:27:14.067Z,1320.00
2018-08-12T04:28:14.062Z,1456.00
2018-08-12T04:29:14.046Z,1580.00
2018-08-12T04:30:14.065Z,1688.00
2018-08-12T04:31:14.031Z,1788.00
2018-08-12T04:32:14.087Z,1860.00
2018-08-12T04:33:13.997Z,1940.00
2018-08-12T04:34:13.993Z,1968.00
2018-08-12T04:35:13.979Z,1988.00
2018-08-12T04:36:13.965Z,2008.00
2018-08-12T04:37:14.001Z,1988.00
2018-08-12T04:38:13.943Z,1964.00
2018-08-12T04:39:13.934Z,1912.00
2018-08-12T04:40:13.942Z,1836.00
2018-08-12T04:41:13.922Z,1808.00
2018-08-12T04:42:13.948Z,1820.00
2018-08-12T04:43:13.897Z,1872.00
2018-08-12T04:44:13.877Z,1928.00
2018-08-12T04:45:13.879Z,1972.00
2018-08-12T04:46:13.861Z,2040.00
2018-08-12T04:47:13.882Z,2132.00
2018-08-12T04:48:21.798Z,2220.00
2018-08-12T04:49:13.827Z,2316.00
2018-08-12T04:50:13.822Z,2380.00
2018-08-12T04:51:13.805Z,2448.00
2018-08-12T04:52:13.831Z,2488.00
2018-08-12T04:53:13.828Z,2508.00
2018-08-12T04:54:21.349Z,2524.00
2018-08-12T04:55:13.761Z,2568.00
2018-08-12T04:56:13.751Z,2592.00
2018-08-12T04:57:13.769Z,2484.00
2018-08-12T04:58:13.723Z,2496.00
2018-08-12T04:59:13.729Z,2476.00
2018-08-12T05:00:13.701Z,2380.00
2018-08-12T05:01:13.691Z,2300.00
2018-08-12T05:02:13.717Z,2188.00
2018-08-12T05:03:13.667Z,2116.00
2018-08-12T05:04:13.655Z,2124.00
2018-08-12T05:05:13.655Z,2100.00
2018-08-12T05:06:13.625Z,2088.00
2018-08-12T05:07:13.645Z,2132.00
2018-08-12T05:08:13.607Z,2172.00
2018-08-12T05:09:13.593Z,2248.00
2018-08-12T05:10:13.588Z,2212.00
2018-08-12T05:11:13.574Z,2204.00
2018-08-12T05:12:13.582Z,2224.00
2018-08-12T05:13:13.547Z,2340.00
2018-08-12T05:14:13.561Z,2744.00
2018-08-12T05:15:13.524Z,3212.00
2018-08-12T05:16:13.517Z,3640.00
2018-08-12T05:17:13.498Z,4200.00
2018-08-12T05:18:13.482Z,4280.00
2018-08-12T05:19:13.498Z,4428.00
2018-08-12T05:20:13.464Z,4648.00
2018-08-12T05:21:13.450Z,4664.00
2018-08-12T05:22:13.440Z,4492.00
2018-08-12T05:23:13.431Z,4612.00
2018-08-12T05:24:13.440Z,4864.00
2018-08-12T05:25:13.423Z,5132.00
2018-08-12T05:26:13.396Z,5352.00
2018-08-12T05:27:13.391Z,5428.00
2018-08-12T05:28:13.365Z,5468.00
2018-08-12T05:29:13.403Z,5424.00
2018-08-12T05:30:13.350Z,5344.00
2018-08-12T05:31:13.424Z,5380.00
2018-08-12T05:32:13.335Z,5412.00
2018-08-12T05:33:13.311Z,5468.00
2018-08-12T05:34:13.348Z,5472.00
2018-08-12T05:35:13.307Z,5380.00
2018-08-12T05:36:13.418Z,5348.00
2018-08-12T05:37:13.269Z,5408.00
2018-08-12T05:38:13.267Z,5468.00
2018-08-12T05:39:13.301Z,5544.00
2018-08-12T05:40:13.237Z,5596.00
2018-08-12T05:41:13.233Z,5520.00
2018-08-12T05:42:13.224Z,5332.00
2018-08-12T05:43:13.206Z,5324.00
2018-08-12T05:44:13.229Z,5516.00
2018-08-12T05:45:13.185Z,5780.00
2018-08-12T05:46:13.178Z,6132.00
2018-08-12T05:47:13.163Z,6392.00
2018-08-12T05:48:13.187Z,6532.00
2018-08-12T05:49:13.173Z,6504.00
2018-08-12T05:50:13.129Z,6424.00
2018-08-12T05:51:13.128Z,6412.00
2018-08-12T05:52:13.107Z,6216.00
2018-08-12T05:53:13.129Z,6032.00
2018-08-12T05:54:13.079Z,6028.00
2018-08-12T05:55:13.076Z,6056.00
2018-08-12T05:56:13.057Z,5884.00
2018-08-12T05:57:13.070Z,5704.00
2018-08-12T05:58:13.106Z,5528.00
2018-08-12T05:59:13.025Z,5412.00
2018-08-12T06:00:13.067Z,5408.00
2018-08-12T06:01:13.010Z,5420.00
2018-08-12T06:02:12.991Z,5404.00
2018-08-12T06:03:12.985Z,5472.00
2018-08-12T06:04:12.967Z,5416.00
2018-08-12T06:05:12.991Z,5268.00
2018-08-12T06:06:12.962Z,5104.00
2018-08-12T06:07:12.956Z,5064.00
2018-08-12T06:08:12.921Z,5176.00
2018-08-12T06:09:13.117Z,5412.00
2018-08-12T06:10:12.939Z,5680.00
2018-08-12T06:11:12.887Z,6084.00
2018-08-12T06:12:13.264Z,6508.00
2018-08-12T06:13:12.885Z,7076.00
2018-08-12T06:14:12.853Z,7712.00
2018-08-12T06:15:12.901Z,8056.00
2018-08-12T06:16:12.832Z,8472.00
2018-08-12T06:17:12.864Z,8468.00
2018-08-12T06:18:12.819Z,8464.00
2018-08-12T06:19:13.065Z,8352.00
2018-08-12T06:20:12.794Z,8368.00
2018-08-12T06:21:12.805Z,8416.00
2018-08-12T06:22:12.816Z,8432.00
2018-08-12T06:23:12.760Z,8344.00
2018-08-12T06:24:12.753Z,8164.00
2018-08-12T06:25:12.727Z,8116.00
2018-08-12T06:26:12.717Z,8204.00
2018-08-12T06:27:12.773Z,8808.00
2018-08-12T06:28:12.689Z,9992.00
2018-08-12T06:29:20.338Z,10332.00
2018-08-12T06:30:12.675Z,12088.00
2018-08-12T06:31:12.659Z,17664.00
2018-08-12T06:32:12.698Z,17248.00
2018-08-12T06:33:12.651Z,23008.00
2018-08-12T06:34:12.630Z,29472.00
2018-08-12T06:35:12.633Z,34720.00
2018-08-12T06:36:12.608Z,36256.00
2018-08-12T06:37:12.649Z,39136.00
2018-08-12T06:38:20.392Z,39296.00
2018-08-12T06:39:12.579Z,42080.00
2018-08-12T06:40:12.574Z,42912.00
2018-08-12T06:41:12.562Z,38304.00
2018-08-12T06:42:12.590Z,36480.00
2018-08-12T06:43:12.529Z,34912.00
2018-08-12T06:44:12.536Z,36256.00
2018-08-12T06:45:12.512Z,39296.00
2018-08-12T06:46:12.525Z,38496.00
2018-08-12T06:47:12.525Z,31520.00
2018-08-12T06:48:12.532Z,37312.00
2018-08-12T06:49:12.462Z,29888.00
2018-08-12T06:50:12.473Z,26112.00
2018-08-12T06:51:12.448Z,22944.00
2018-08-12T06:52:12.460Z,22496.00
2018-08-12T06:53:13.642Z,25216.00
2018-08-12T06:54:12.402Z,14852.00
2018-08-12T06:55:12.781Z,13672.00
2018-08-12T06:56:12.502Z,15040.00
2018-08-12T06:57:12.668Z,14908.00
2018-08-12T06:58:12.464Z,15244.00
2018-08-12T06:59:12.372Z,18208.00
2018-08-12T07:00:12.334Z,17824.00
2018-08-12T07:01:12.601Z,22048.00
2018-08-12T07:02:13.460Z,29504.00
2018-08-12T07:03:12.509Z,28800.00
2018-08-12T07:04:12.307Z,30784.00
2018-08-12T07:05:12.333Z,35360.00
2018-08-12T07:06:12.388Z,18624.00
2018-08-12T07:07:19.960Z,23264.00
2018-08-12T07:08:12.344Z,24768.00
2018-08-12T07:09:12.449Z,19104.00
2018-08-12T07:10:12.304Z,22496.00
2018-08-12T07:11:12.220Z,30592.00
2018-08-12T07:12:12.223Z,29056.00
2018-08-12T07:13:12.174Z,34752.00
2018-08-12T07:14:12.267Z,36160.00
2018-08-12T07:15:12.165Z,39104.00
2018-08-12T07:16:12.140Z,40960.00
2018-08-12T07:17:12.133Z,37024.00
2018-08-12T07:18:12.131Z,39072.00
2018-08-12T07:19:12.165Z,45536.00
2018-08-12T07:20:12.107Z,35712.00
2018-08-12T07:21:12.088Z,45856.00
2018-08-12T07:22:12.078Z,45664.00
2018-08-12T07:23:12.065Z,48096.00
2018-08-12T07:24:12.097Z,46112.00
2018-08-12T07:25:12.061Z,30112.00
2018-08-12T07:26:12.040Z,43904.00
2018-08-12T07:27:12.019Z,60832.00
2018-08-12T07:28:12.007Z,56288.00
2018-08-12T07:29:12.025Z,47680.00
2018-08-12T07:30:11.988Z,49664.00
2018-08-12T07:31:12.007Z,44704.00
2018-08-12T07:32:11.969Z,40992.00
2018-08-12T07:33:11.944Z,24800.00
2018-08-12T07:34:11.939Z,14544.00
2018-08-12T07:35:11.927Z,12712.00
2018-08-12T07:36:11.951Z,8968.00
2018-08-12T07:37:11.903Z,8960.00
2018-08-12T07:38:19.907Z,8788.00
2018-08-12T07:39:11.933Z,13304.00
2018-08-12T07:40:11.881Z,9164.00
2018-08-12T07:41:11.868Z,11244.00
2018-08-12T07:42:11.853Z,10160.00
2018-08-12T07:43:11.843Z,9852.00
2018-08-12T07:44:11.873Z,19872.00
2018-08-12T07:45:11.823Z,15184.00
2018-08-12T07:46:11.809Z,14080.00
2018-08-12T07:47:11.811Z,16960.00
2018-08-12T07:48:11.792Z,16280.00
2018-08-12T07:49:11.806Z,18208.00
2018-08-12T07:50:11.775Z,23616.00
2018-08-12T07:51:11.792Z,32192.00
2018-08-12T07:52:11.745Z,31808.00
2018-08-12T07:53:19.448Z,39904.00
2018-08-12T07:54:11.721Z,49728.00
2018-08-12T07:55:11.717Z,57216.00
2018-08-12T07:56:11.752Z,39520.00
2018-08-12T07:57:11.690Z,34304.00
2018-08-12T07:58:11.685Z,13592.00
2018-08-12T07:59:11.668Z,22048.00
2018-08-12T08:00:11.656Z,37216.00
2018-08-12T08:01:11.674Z,11520.00
2018-08-12T08:02:19.495Z,11364.00
2018-08-12T08:03:11.622Z,12964.00
2018-08-12T08:04:11.615Z,34912.00
2018-08-12T08:05:20.038Z,25792.00
2018-08-12T08:06:11.601Z,22784.00
2018-08-12T08:07:11.571Z,9628.00
2018-08-12T08:08:11.589Z,10424.00
2018-08-12T08:09:11.541Z,8668.00
2018-08-12T08:10:11.528Z,9904.00
2018-08-12T08:11:11.564Z,9216.00
2018-08-12T08:12:11.521Z,9564.00
2018-08-12T08:13:11.542Z,17732.00
2018-08-12T08:14:11.546Z,10924.00
2018-08-12T08:15:11.470Z,10052.00
2018-08-12T08:16:11.463Z,9952.00
2018-08-12T08:17:19.033Z,12780.00
2018-08-12T08:18:11.443Z,14572.00
2018-08-12T08:19:11.472Z,13544.00
2018-08-12T08:20:11.434Z,15592.00
2018-08-12T08:21:11.462Z,17760.00
2018-08-12T08:22:11.400Z,15140.00
2018-08-12T08:23:11.415Z,23744.00
2018-08-12T08:24:11.383Z,14976.00
2018-08-12T08:25:11.456Z,10852.00
2018-08-12T08:26:11.451Z,11160.00
2018-08-12T08:27:11.345Z,13364.00
2018-08-12T08:28:11.335Z,15816.00
2018-08-12T08:29:11.340Z,11060.00
2018-08-12T08:30:11.308Z,12784.00
2018-08-12T08:31:11.345Z,11808.00
2018-08-12T08:32:11.330Z,11476.00
2018-08-12T08:33:11.280Z,13436.00
2018-08-12T08:34:11.323Z,28416.00
2018-08-12T08:35:11.248Z,13852.00
2018-08-12T08:36:11.232Z,10908.00
2018-08-12T08:37:11.267Z,23392.00
2018-08-12T08:38:11.298Z,11396.00
2018-08-12T08:39:11.203Z,12132.00
2018-08-12T08:40:11.215Z,10136.00
2018-08-12T08:41:11.177Z,11408.00
2018-08-12T08:42:11.219Z,10252.00
2018-08-12T08:43:11.159Z,10708.00
2018-08-12T08:44:19.069Z,10612.00
2018-08-12T08:45:11.138Z,12204.00
2018-08-12T08:46:11.126Z,36448.00
2018-08-12T08:47:20.616Z,44640.00
2018-08-12T08:48:11.144Z,53024.00
2018-08-12T08:49:11.090Z,18976.00
2018-08-12T08:50:11.074Z,41632.00
2018-08-12T08:51:11.078Z,18528.00
2018-08-12T08:52:11.073Z,33152.00
2018-08-12T08:53:11.086Z,24096.00
2018-08-12T08:54:11.029Z,12416.00
2018-08-12T08:55:11.027Z,13336.00
2018-08-12T08:56:11.041Z,20768.00
2018-08-12T08:57:10.999Z,15016.00
2018-08-12T08:58:11.034Z,18496.00
2018-08-12T08:59:10.977Z,19840.00
2018-08-12T09:00:10.975Z,27392.00
2018-08-12T09:01:10.987Z,16932.00
2018-08-12T09:02:10.945Z,18912.00
2018-08-12T09:03:10.976Z,19872.00
2018-08-12T09:04:10.988Z,17184.00
2018-08-12T09:05:10.918Z,18176.00
2018-08-12T09:06:10.926Z,17920.00
2018-08-12T09:07:10.899Z,16628.00
2018-08-12T09:08:11.062Z,17376.00
2018-08-12T09:09:11.186Z,18816.00
2018-08-12T09:10:10.853Z,16344.00
2018-08-12T09:11:10.853Z,25120.00
2018-08-12T09:12:10.839Z,21920.00
2018-08-12T09:13:10.824Z,22880.00
2018-08-12T09:14:10.850Z,30016.00
2018-08-12T09:15:10.853Z,47776.00
2018-08-12T09:16:10.805Z,58080.00
2018-08-12T09:17:10.783Z,19776.00
2018-08-12T09:18:10.801Z,70272.00
2018-08-12T09:19:10.765Z,73344.00
2018-08-12T09:20:10.787Z,22944.00
2018-08-12T09:21:10.741Z,35648.00
2018-08-12T09:22:10.727Z,20192.00
2018-08-12T09:23:10.721Z,27328.00
2018-08-12T09:24:10.695Z,69824.00
2018-08-12T09:25:10.731Z,74944.00
2018-08-12T09:26:10.685Z,71616.00
2018-08-12T09:27:10.793Z,70432.00
2018-08-12T09:28:10.661Z,68000.00
2018-08-12T09:29:10.673Z,75392.00
2018-08-12T09:30:10.823Z,67328.00
2018-08-12T09:31:10.617Z,72352.00
2018-08-12T09:32:18.645Z,73056.00
2018-08-12T09:33:10.589Z,74880.00
2018-08-12T09:34:10.578Z,78112.00
2018-08-12T09:35:10.622Z,77632.00
2018-08-12T09:36:10.564Z,83648.00
2018-08-12T09:37:10.549Z,77184.00
2018-08-12T09:38:10.550Z,86368.00
2018-08-12T09:39:10.521Z,89408.00
2018-08-12T09:40:10.550Z,85952.00
2018-08-12T09:41:10.554Z,84416.00
2018-08-12T09:42:10.497Z,79424.00
2018-08-12T09:43:10.568Z,86016.00
2018-08-12T09:44:10.466Z,84256.00
2018-08-12T09:45:10.475Z,84160.00
2018-08-12T09:46:10.530Z,86272.00
2018-08-12T09:47:10.562Z,89760.00
2018-08-12T09:48:10.429Z,91392.00
2018-08-12T09:49:10.437Z,91360.00
2018-08-12T09:50:10.406Z,90144.00
2018-08-12T09:51:10.441Z,87104.00
2018-08-12T09:52:10.382Z,73632.00
2018-08-12T09:53:10.408Z,87072.00
2018-08-12T09:54:10.370Z,83072.00
2018-08-12T09:55:10.367Z,85088.00
2018-08-12T09:56:10.347Z,82592.00
2018-08-12T09:57:10.342Z,80608.00
2018-08-12T09:58:10.384Z,15068.00
2018-08-12T09:59:10.309Z,82048.00
2018-08-12T10:00:10.333Z,85920.00
2018-08-12T10:01:10.317Z,90144.00
2018-08-12T10:02:10.466Z,92128.00
2018-08-12T10:03:10.346Z,93696.00
2018-08-12T10:04:10.436Z,89696.00
2018-08-12T10:05:10.283Z,90368.00
2018-08-12T10:06:10.313Z,92320.00
2018-08-12T10:07:10.292Z,89184.00
2018-08-12T10:08:10.321Z,91424.00
2018-08-12T10:09:10.277Z,90272.00
2018-08-12T10:10:10.287Z,89248.00
2018-08-12T10:11:18.174Z,88576.00
2018-08-12T10:12:10.187Z,85440.00
2018-08-12T10:13:10.225Z,87008.00
2018-08-12T10:14:10.159Z,95328.00
2018-08-12T10:15:10.156Z,95584.00
2018-08-12T10:16:10.165Z,100160.00
2018-08-12T10:17:10.133Z,100672.00
2018-08-12T10:18:10.166Z,93376.00
2018-08-12T10:19:10.116Z,93408.00
2018-08-12T10:20:10.101Z,99616.00
2018-08-12T10:21:10.083Z,96032.00
2018-08-12T10:22:10.085Z,96928.00
2018-08-12T10:23:10.105Z,98848.00
2018-08-12T10:24:10.099Z,97152.00
2018-08-12T10:25:10.051Z,98688.00
2018-08-12T10:26:10.062Z,99008.00
2018-08-12T10:27:10.028Z,98848.00
2018-08-12T10:28:10.074Z,94656.00
2018-08-12T10:29:17.774Z,89920.00
2018-08-12T10:30:09.998Z,93920.00
2018-08-12T10:31:09.991Z,93472.00
2018-08-12T10:32:09.983Z,93280.00
2018-08-12T10:33:10.013Z,97536.00
2018-08-12T10:34:09.992Z,73696.00
2018-08-12T10:35:09.956Z,66496.00
2018-08-12T10:36:09.917Z,93664.00
2018-08-12T10:37:09.929Z,99712.00
2018-08-12T10:38:09.941Z,99552.00
2018-08-12T10:39:09.918Z,93760.00
2018-08-12T10:40:09.877Z,60672.00
2018-08-12T10:41:19.288Z,46816.00
2018-08-12T10:42:09.866Z,68480.00
2018-08-12T10:43:09.844Z,64448.00
2018-08-12T10:44:18.377Z,98368.00
2018-08-12T10:45:09.827Z,95584.00
2018-08-12T10:46:09.817Z,94720.00
2018-08-12T10:47:09.823Z,92032.00
2018-08-12T10:48:09.796Z,85376.00
2018-08-12T10:49:09.827Z,82944.00
2018-08-12T10:50:17.322Z,82464.00
2018-08-12T10:51:09.767Z,84096.00
2018-08-12T10:52:09.787Z,87264.00
2018-08-12T10:53:17.354Z,91392.00
2018-08-12T10:54:09.771Z,86592.00
2018-08-12T10:55:09.723Z,82528.00
2018-08-12T10:56:09.717Z,88864.00
2018-08-12T10:57:09.706Z,91296.00
2018-08-12T10:58:09.737Z,80032.00
2018-08-12T10:59:09.699Z,98144.00
2018-08-12T11:00:09.715Z,99968.00
2018-08-12T11:01:09.697Z,93376.00
2018-08-12T11:02:09.673Z,22944.00
2018-08-12T11:03:09.717Z,36800.00
2018-08-12T11:04:09.745Z,84288.00
2018-08-12T11:05:17.405Z,93760.00
2018-08-12T11:06:09.625Z,95520.00
2018-08-12T11:07:09.614Z,76448.00
2018-08-12T11:08:20.479Z,72704.00
2018-08-12T11:09:09.649Z,83200.00
2018-08-12T11:10:09.579Z,81152.00
2018-08-12T11:11:09.588Z,30272.00
2018-08-12T11:12:09.563Z,83648.00
2018-08-12T11:13:09.587Z,31136.00
2018-08-12T11:14:09.572Z,64640.00
2018-08-12T11:15:09.889Z,56256.00
2018-08-12T11:16:09.515Z,63840.00
2018-08-12T11:17:09.505Z,65440.00
2018-08-12T11:18:09.493Z,32256.00
2018-08-12T11:19:09.512Z,25248.00
2018-08-12T11:20:09.471Z,28704.00
2018-08-12T11:21:09.465Z,46688.00
2018-08-12T11:22:09.447Z,22336.00
2018-08-12T11:23:09.431Z,21792.00
2018-08-12T11:24:09.492Z,23648.00
2018-08-12T11:25:09.407Z,90432.00
2018-08-12T11:26:09.441Z,85728.00
2018-08-12T11:27:09.438Z,68512.00
2018-08-12T11:28:09.390Z,53280.00
2018-08-12T11:29:09.362Z,24704.00
2018-08-12T11:30:09.364Z,57120.00
2018-08-12T11:31:09.470Z,89152.00
2018-08-12T11:32:09.337Z,29632.00
2018-08-12T11:33:09.320Z,27552.00
2018-08-12T11:34:09.300Z,28000.00
2018-08-12T11:35:09.312Z,76960.00
2018-08-12T11:36:09.314Z,73344.00
2018-08-12T11:37:09.273Z,72960.00
2018-08-12T11:38:09.311Z,34592.00
2018-08-12T11:39:09.251Z,26176.00
2018-08-12T11:40:09.243Z,24672.00
2018-08-12T11:41:09.281Z,34976.00
2018-08-12T11:42:09.239Z,22816.00
2018-08-12T11:43:09.201Z,23232.00
2018-08-12T11:44:09.281Z,27456.00
2018-08-12T11:45:09.263Z,84032.00
2018-08-12T11:46:09.200Z,77792.00
2018-08-12T11:47:17.018Z,49376.00
2018-08-12T11:48:09.287Z,27616.00
2018-08-12T11:49:09.135Z,28576.00
2018-08-12T11:50:09.149Z,46272.00
2018-08-12T11:51:09.121Z,37664.00
2018-08-12T11:52:09.105Z,63040.00
2018-08-12T11:53:18.520Z,57248.00
2018-08-12T11:54:09.089Z,53472.00
2018-08-12T11:55:09.097Z,59744.00
2018-08-12T11:56:09.075Z,55040.00
2018-08-12T11:57:09.098Z,47968.00
2018-08-12T11:58:09.050Z,26752.00
2018-08-12T11:59:18.027Z,22720.00
2018-08-12T12:00:09.045Z,25216.00
2018-08-12T12:01:09.027Z,27328.00
2018-08-12T12:02:09.061Z,24768.00
2018-08-12T12:03:08.999Z,25376.00
2018-08-12T12:04:08.987Z,37184.00
2018-08-12T12:05:09.133Z,23264.00
2018-08-12T12:06:08.962Z,21344.00
2018-08-12T12:07:08.947Z,20032.00
2018-08-12T12:08:08.971Z,21920.00
2018-08-12T12:09:08.922Z,41664.00
2018-08-12T12:10:08.966Z,28160.00
2018-08-12T12:11:08.925Z,26560.00
2018-08-12T12:12:08.976Z,26720.00
2018-08-12T12:13:08.918Z,34880.00
2018-08-12T12:14:08.863Z,53888.00
2018-08-12T12:15:08.913Z,72448.00
2018-08-12T12:16:08.871Z,75456.00